Pagrindinis puslapis
METAR-TAF:

METAR-TAF

Oro uostai :

Kish Island, Iranas

platuma: 26-31-36N, ilguma: 053-58-54E, Aukštis: 30 m

Dabartinis oras

Ataskaita buvo paskelbta 36 minutes, ne 16:00 UTC
Ramus vėjas
Temperatūra 27°C
Drėgmė 66%
Slėgis 1013 hPa
Matomumas: 7000 m

METAR: OIBK 251600Z 00000KT 7000 NSC 27/20 Q1013

Laikas: 20:06 (16:36 UTC)

Prognozė

Ataskaita buvo paskelbta 5 valandos ir 6 minutes, ne 11:30 UTC
Prognozė galioja nuo 25 metu 12 UTC su 26 metu 18 UTC
Vėjas 10 kt iš Pietryčių
Matomumas: 7000 m

TAF: OIBK 251130Z 2512/2618 13010KT 7000 NSC

Orai ataskaitas ir orų prognozės (METAR, TAF).

turimą stotys yra geltonos ir raudonos taškus žemėlapyje.

Perkelti pele per norėdami pamatyti stoties vardą.

Tada spustelėkite, norėdami matyti oro stebėjimo ir prognozės.

Norėdami pakeisti žemėlapį: spustelėkite ant žalios mygtukų su juodo kryžiaus žemyn,; žalią mygtuką su brūkšneliu, jei norite nutolinti; arba žalių rodyklių gretimoms žemėlapius.


METAR-TAF: